createdAt,value
2019-02-26T00:01:48.575Z,5.30
2019-02-26T00:04:16.539Z,24.93
2019-02-26T00:06:49.018Z,9.70
2019-02-26T00:09:22.393Z,25.43
2019-02-26T00:11:50.287Z,17.50
2019-02-26T00:14:20.756Z,13.67
2019-02-26T00:16:51.907Z,13.90
2019-02-26T00:19:22.098Z,6.50
2019-02-26T00:21:54.321Z,9.63
2019-02-26T00:24:23.881Z,10.97
2019-02-26T00:26:53.780Z,11.60
2019-02-26T00:29:25.347Z,12.63
2019-02-26T00:31:57.714Z,12.53
2019-02-26T00:34:27.661Z,9.00
2019-02-26T00:36:59.567Z,6.10
2019-02-26T00:39:31.381Z,4.90
2019-02-26T00:42:02.746Z,5.50
2019-02-26T00:44:35.297Z,6.10
2019-02-26T00:47:06.677Z,4.23
2019-02-26T00:49:37.010Z,6.57
2019-02-26T00:52:08.696Z,9.37
2019-02-26T00:54:39.006Z,4.73
2019-02-26T00:57:11.543Z,5.33
2019-02-26T00:59:42.002Z,5.90
2019-02-26T01:02:13.243Z,10.70
2019-02-26T01:04:44.558Z,6.90
2019-02-26T01:07:15.366Z,16.13
2019-02-26T01:09:45.444Z,5.90
2019-02-26T01:12:16.630Z,4.13
2019-02-26T01:14:48.093Z,14.67
2019-02-26T01:17:18.973Z,16.07
2019-02-26T01:19:49.201Z,11.93
2019-02-26T01:22:19.400Z,6.60
2019-02-26T01:24:49.863Z,17.40
2019-02-26T01:27:20.981Z,27.40
2019-02-26T01:29:53.432Z,21.80
2019-02-26T01:32:24.886Z,17.47
2019-02-26T01:34:54.927Z,26.07
2019-02-26T01:37:25.312Z,17.03
2019-02-26T01:39:56.756Z,11.40
2019-02-26T01:42:27.555Z,12.27
2019-02-26T01:44:58.651Z,16.03
2019-02-26T01:47:28.658Z,14.00
2019-02-26T01:49:59.447Z,13.53
2019-02-26T01:52:29.545Z,16.93
2019-02-26T01:55:00.630Z,7.87
2019-02-26T01:57:31.618Z,13.93
2019-02-26T02:00:01.503Z,10.87
2019-02-26T02:02:31.377Z,11.23
2019-02-26T02:05:03.141Z,11.67
2019-02-26T02:07:33.481Z,9.17
2019-02-26T02:10:03.540Z,11.60
2019-02-26T02:12:34.393Z,5.97
2019-02-26T02:15:08.077Z,7.87
2019-02-26T02:17:40.065Z,13.70
2019-02-26T02:20:13.128Z,9.37
2019-02-26T02:22:44.463Z,4.50
2019-02-26T02:25:14.894Z,5.60
2019-02-26T02:27:47.566Z,10.87
2019-02-26T02:30:22.729Z,12.67
2019-02-26T02:32:54.054Z,11.10
2019-02-26T02:35:21.630Z,13.40
2019-02-26T02:37:53.533Z,18.50
2019-02-26T02:40:23.581Z,7.47
2019-02-26T02:42:53.767Z,11.83
2019-02-26T02:45:23.899Z,10.20
2019-02-26T02:47:57.854Z,6.17
2019-02-26T02:50:25.745Z,12.97
2019-02-26T02:52:56.964Z,12.47
2019-02-26T02:55:27.668Z,13.43
2019-02-26T02:57:59.985Z,9.93
2019-02-26T03:00:32.219Z,14.77
2019-02-26T03:03:01.469Z,18.47
2019-02-26T03:05:34.163Z,10.33
2019-02-26T03:08:03.272Z,5.60
2019-02-26T03:10:34.611Z,6.60
2019-02-26T03:13:05.159Z,4.50
2019-02-26T03:15:35.909Z,8.70
2019-02-26T03:18:08.613Z,15.40
2019-02-26T03:20:40.312Z,8.90
2019-02-26T03:23:12.369Z,12.33
2019-02-26T03:25:44.307Z,20.43
2019-02-26T03:28:14.119Z,11.23
2019-02-26T03:30:44.706Z,20.83
2019-02-26T03:33:14.741Z,20.00
2019-02-26T03:35:44.941Z,11.70
2019-02-26T03:38:17.494Z,21.23
2019-02-26T03:40:49.268Z,16.73
2019-02-26T03:43:18.787Z,14.57
2019-02-26T03:45:48.988Z,13.00
2019-02-26T03:48:20.118Z,12.33
2019-02-26T03:50:50.732Z,13.17
2019-02-26T03:53:25.517Z,27.13
2019-02-26T03:55:52.631Z,38.30
2019-02-26T03:58:23.026Z,28.47
2019-02-26T04:00:53.208Z,19.20
2019-02-26T04:03:23.411Z,21.67
2019-02-26T04:05:57.137Z,23.10
2019-02-26T04:08:27.156Z,23.27
2019-02-26T04:10:59.352Z,24.17
2019-02-26T04:13:29.055Z,25.67
2019-02-26T04:15:59.598Z,30.47
2019-02-26T04:18:34.174Z,25.37
2019-02-26T04:21:05.662Z,19.13
2019-02-26T04:23:36.132Z,23.20
2019-02-26T04:26:46.129Z,29.60
2019-02-26T04:29:35.451Z,19.53
2019-02-26T04:32:46.152Z,18.30
2019-02-26T04:35:44.898Z,18.77
2019-02-26T04:39:07.489Z,42.17
2019-02-26T04:41:51.035Z,29.63
2019-02-26T04:45:16.761Z,31.87
2019-02-26T04:47:49.516Z,132.90
2019-02-26T04:50:23.040Z,22.40
2019-02-26T04:52:50.680Z,17.33
2019-02-26T04:55:20.899Z,24.03
2019-02-26T04:57:54.057Z,34.37
2019-02-26T05:00:26.999Z,33.13
2019-02-26T05:02:55.882Z,39.03
2019-02-26T05:05:28.526Z,28.67
2019-02-26T05:07:57.961Z,31.80
2019-02-26T05:10:29.773Z,21.40
2019-02-26T05:13:01.016Z,17.23
2019-02-26T05:15:33.250Z,17.83
2019-02-26T05:18:03.354Z,17.80
2019-02-26T05:20:34.823Z,96.97
2019-02-26T05:23:06.291Z,37.00
2019-02-26T05:25:37.350Z,21.53
2019-02-26T05:28:11.411Z,85.83
2019-02-26T05:30:43.217Z,245.17
2019-02-26T05:33:12.494Z,202.20
2019-02-26T05:35:45.618Z,200.60
2019-02-26T05:38:14.236Z,47.53
2019-02-26T05:40:45.191Z,36.50
2019-02-26T05:43:16.438Z,47.07
2019-02-26T05:45:48.459Z,36.53
2019-02-26T05:48:20.453Z,55.13
2019-02-26T05:50:49.974Z,47.93
2019-02-26T05:53:20.174Z,41.70
2019-02-26T05:55:51.253Z,43.27
2019-02-26T05:58:22.695Z,60.17
2019-02-26T06:00:53.075Z,48.40
2019-02-26T06:03:23.067Z,62.20
2019-02-26T06:05:55.488Z,55.07
2019-02-26T06:08:26.679Z,62.87
2019-02-26T06:10:57.079Z,71.20
2019-02-26T06:13:29.169Z,48.13
2019-02-26T06:16:02.269Z,63.93
2019-02-26T06:18:31.801Z,80.80
2019-02-26T06:21:02.355Z,91.20
2019-02-26T06:23:34.488Z,74.53
2019-02-26T06:26:28.140Z,82.63
2019-02-26T06:28:57.500Z,70.23
2019-02-26T06:31:27.842Z,58.87
2019-02-26T06:34:01.529Z,61.27
2019-02-26T06:36:30.620Z,53.70
2019-02-26T06:39:02.002Z,42.27
2019-02-26T06:41:33.758Z,43.57
2019-02-26T06:44:04.228Z,37.83
2019-02-26T06:46:35.866Z,41.30
2019-02-26T06:49:06.505Z,43.90
2019-02-26T06:51:36.998Z,38.73
2019-02-26T06:54:07.355Z,41.17
2019-02-26T06:56:41.417Z,23.30
2019-02-26T06:59:12.246Z,22.17
2019-02-26T07:01:42.812Z,33.03
2019-02-26T07:04:13.102Z,42.57
2019-02-26T07:06:43.107Z,24.60
2019-02-26T07:09:13.790Z,17.80
2019-02-26T07:11:45.111Z,22.87
2019-02-26T07:14:15.332Z,23.30
2019-02-26T07:16:45.440Z,27.87
2019-02-26T07:19:16.702Z,11.63
2019-02-26T07:21:48.140Z,20.67
2019-02-26T07:24:20.534Z,34.93
2019-02-26T07:26:50.677Z,26.93
2019-02-26T07:29:21.185Z,26.00
2019-02-26T07:31:51.923Z,18.27
2019-02-26T07:34:24.932Z,35.13
2019-02-26T07:36:54.981Z,36.17
2019-02-26T07:39:25.207Z,28.03
2019-02-26T07:41:55.219Z,20.10
2019-02-26T07:44:26.468Z,31.67
2019-02-26T07:46:58.815Z,17.83
2019-02-26T07:49:29.035Z,13.27
2019-02-26T07:52:00.290Z,26.53
2019-02-26T07:54:30.927Z,29.90
2019-02-26T07:57:02.678Z,32.20
2019-02-26T07:59:34.862Z,40.73
2019-02-26T08:02:06.391Z,36.23
2019-02-26T08:04:38.771Z,44.40
2019-02-26T08:07:08.612Z,45.43
2019-02-26T08:09:38.611Z,45.07
2019-02-26T08:12:11.101Z,24.83
2019-02-26T08:14:42.760Z,32.30
2019-02-26T08:17:12.516Z,54.60
2019-02-26T08:19:46.379Z,36.87
2019-02-26T08:22:14.598Z,38.30
2019-02-26T08:24:46.083Z,44.87
2019-02-26T08:27:16.553Z,57.63
2019-02-26T08:29:46.815Z,41.97
2019-02-26T08:32:18.849Z,42.90
2019-02-26T08:34:49.249Z,67.50
2019-02-26T08:37:19.365Z,29.93
2019-02-26T08:39:49.548Z,42.73
2019-02-26T08:42:19.537Z,87.90
2019-02-26T08:44:51.304Z,83.73
2019-02-26T08:47:23.387Z,64.37
2019-02-26T08:49:53.472Z,55.67
2019-02-26T08:52:25.008Z,29.50
2019-02-26T08:54:55.180Z,35.67
2019-02-26T08:57:25.373Z,27.70
2019-02-26T08:59:55.570Z,67.67
2019-02-26T09:02:25.458Z,35.47
2019-02-26T09:04:55.499Z,20.77
2019-02-26T09:07:26.282Z,22.07
2019-02-26T09:09:57.558Z,18.50
2019-02-26T09:12:28.056Z,58.73
2019-02-26T09:14:58.060Z,21.97
2019-02-26T09:17:31.868Z,28.07
2019-02-26T09:20:09.216Z,17.13
2019-02-26T09:22:31.891Z,24.63
2019-02-26T09:25:02.656Z,21.33
2019-02-26T09:27:35.098Z,15.80
2019-02-26T09:30:06.580Z,14.33
2019-02-26T09:32:39.680Z,13.30
2019-02-26T09:35:10.742Z,12.47
2019-02-26T09:37:42.816Z,14.13
2019-02-26T09:40:14.210Z,17.80
2019-02-26T09:42:46.334Z,15.13
2019-02-26T09:45:20.395Z,18.87
2019-02-26T09:47:51.981Z,12.33
2019-02-26T09:50:22.633Z,9.47
2019-02-26T09:52:55.769Z,9.47
2019-02-26T09:55:24.943Z,8.60
2019-02-26T09:57:54.938Z,7.70
2019-02-26T10:00:28.565Z,12.73
2019-02-26T10:02:56.982Z,8.23
2019-02-26T10:05:27.184Z,8.60
2019-02-26T10:08:00.027Z,9.40
2019-02-26T10:10:31.200Z,7.57
2019-02-26T10:13:02.838Z,7.33
2019-02-26T10:15:34.782Z,8.70
2019-02-26T10:18:06.717Z,8.20
2019-02-26T10:20:36.452Z,7.97
2019-02-26T10:23:06.665Z,14.93
2019-02-26T10:25:38.920Z,7.30
2019-02-26T10:28:11.575Z,22.00
2019-02-26T10:30:41.815Z,12.00
2019-02-26T10:33:17.435Z,12.47
2019-02-26T10:35:47.589Z,27.73
2019-02-26T10:38:17.946Z,10.50
2019-02-26T10:40:53.886Z,17.80
2019-02-26T10:43:19.901Z,17.53
2019-02-26T10:45:50.555Z,26.07
2019-02-26T10:48:24.528Z,11.90
2019-02-26T10:50:53.864Z,9.97
2019-02-26T10:53:23.902Z,7.33
2019-02-26T10:55:54.008Z,14.93
2019-02-26T10:58:24.232Z,7.13
2019-02-26T11:00:58.082Z,7.60
2019-02-26T11:03:26.679Z,6.03
2019-02-26T11:05:56.826Z,6.33
2019-02-26T11:08:29.692Z,7.07
2019-02-26T11:10:58.995Z,14.40
2019-02-26T11:13:28.934Z,4.50
2019-02-26T11:16:02.785Z,4.93
2019-02-26T11:18:30.866Z,6.23
2019-02-26T11:21:00.939Z,4.80
2019-02-26T11:23:33.864Z,4.83
2019-02-26T11:26:04.183Z,12.73
2019-02-26T11:28:38.069Z,28.67
2019-02-26T11:31:09.022Z,15.33
2019-02-26T11:33:39.534Z,30.77
2019-02-26T11:36:11.131Z,6.00
2019-02-26T11:38:42.163Z,44.03
2019-02-26T11:41:13.407Z,16.90
2019-02-26T11:43:43.636Z,11.43
2019-02-26T11:46:13.841Z,6.53
2019-02-26T11:48:45.658Z,15.50
2019-02-26T11:51:17.671Z,27.73
2019-02-26T11:53:47.545Z,8.80
2019-02-26T11:56:20.688Z,5.97
2019-02-26T11:58:49.535Z,11.20
2019-02-26T12:01:19.734Z,7.07
2019-02-26T12:03:49.658Z,23.33
2019-02-26T12:06:19.684Z,5.70
2019-02-26T12:08:50.098Z,9.70
2019-02-26T12:11:23.099Z,6.10
2019-02-26T12:13:53.160Z,29.33
2019-02-26T12:16:23.437Z,16.93
2019-02-26T12:18:53.699Z,15.40
2019-02-26T12:21:25.227Z,8.13
2019-02-26T12:23:55.640Z,7.57
2019-02-26T12:26:27.942Z,29.83
2019-02-26T12:28:59.512Z,24.40
2019-02-26T12:31:31.782Z,6.10
2019-02-26T12:34:01.302Z,5.43
2019-02-26T12:36:32.649Z,6.53
2019-02-26T12:39:03.432Z,6.70
2019-02-26T12:41:36.578Z,11.73
2019-02-26T12:44:10.384Z,10.60
2019-02-26T12:46:38.071Z,12.70
2019-02-26T12:49:09.478Z,12.00
2019-02-26T12:51:40.186Z,7.97
2019-02-26T12:54:13.696Z,36.73
2019-02-26T12:56:42.300Z,9.33
2019-02-26T12:59:12.312Z,10.13
2019-02-26T13:01:45.769Z,7.83
2019-02-26T13:04:19.623Z,5.00
2019-02-26T13:06:48.432Z,10.47
2019-02-26T13:09:18.036Z,4.27
2019-02-26T13:12:00.640Z,3.30
2019-02-26T13:14:20.010Z,3.20
2019-02-26T13:16:53.327Z,3.47
2019-02-26T13:19:22.739Z,3.57
2019-02-26T13:21:56.281Z,4.23
2019-02-26T13:24:26.438Z,3.70
2019-02-26T13:26:59.720Z,5.27
2019-02-26T13:29:28.957Z,5.10
2019-02-26T13:32:00.146Z,6.87
2019-02-26T13:34:30.714Z,4.23
2019-02-26T13:37:00.649Z,4.00
2019-02-26T13:39:38.397Z,3.83
2019-02-26T13:42:05.704Z,4.47
2019-02-26T13:44:34.707Z,5.83
2019-02-26T13:47:05.196Z,9.70
2019-02-26T13:49:35.364Z,6.10
2019-02-26T13:52:06.154Z,6.97
2019-02-26T13:54:36.046Z,3.73
2019-02-26T13:57:06.254Z,9.53
2019-02-26T13:59:36.886Z,5.30
2019-02-26T14:02:07.428Z,3.63
2019-02-26T14:04:37.606Z,3.63
2019-02-26T14:07:08.197Z,10.33
2019-02-26T14:09:38.189Z,17.30
2019-02-26T14:12:08.292Z,9.03
2019-02-26T14:14:38.565Z,8.73
2019-02-26T14:17:08.770Z,5.43
2019-02-26T14:19:38.715Z,2.33
2019-02-26T14:22:09.224Z,8.90
2019-02-26T14:24:39.608Z,4.80
2019-02-26T14:27:09.857Z,6.17
2019-02-26T14:29:40.293Z,6.73
2019-02-26T14:32:10.434Z,8.40
2019-02-26T14:34:40.764Z,15.30
2019-02-26T14:37:10.973Z,4.53
2019-02-26T14:39:40.915Z,8.27
2019-02-26T14:42:11.212Z,7.97
2019-02-26T14:44:41.333Z,5.77
2019-02-26T14:47:11.468Z,6.97
2019-02-26T14:49:41.691Z,5.13
2019-02-26T14:52:12.000Z,4.03
2019-02-26T14:54:41.901Z,8.27
2019-02-26T14:57:12.211Z,7.57
2019-02-26T14:59:42.436Z,5.50
2019-02-26T15:02:12.666Z,38.03
2019-02-26T15:04:42.699Z,13.07
2019-02-26T15:07:12.845Z,37.90
2019-02-26T15:09:43.092Z,23.07
2019-02-26T15:12:13.313Z,14.70
2019-02-26T15:14:43.436Z,18.27
2019-02-26T15:17:13.625Z,14.00
2019-02-26T15:19:50.220Z,19.63
2019-02-26T15:22:15.945Z,27.27
2019-02-26T15:24:45.847Z,14.27
2019-02-26T15:27:15.871Z,21.93
2019-02-26T15:29:46.093Z,71.63
2019-02-26T15:32:16.643Z,76.03
2019-02-26T15:34:46.575Z,63.07
2019-02-26T15:37:16.507Z,56.87
2019-02-26T15:39:46.748Z,28.83
2019-02-26T15:42:19.094Z,35.07
2019-02-26T15:44:48.705Z,41.37
2019-02-26T15:47:18.741Z,13.87
2019-02-26T15:49:48.960Z,19.47
2019-02-26T15:52:21.398Z,27.47
2019-02-26T15:54:51.040Z,32.60
2019-02-26T15:57:20.994Z,22.03
2019-02-26T15:59:51.332Z,21.33
2019-02-26T16:02:21.355Z,15.57
2019-02-26T16:04:51.579Z,24.30
2019-02-26T16:07:21.744Z,10.23
2019-02-26T16:09:51.840Z,6.60
2019-02-26T16:12:21.881Z,16.70
2019-02-26T16:14:52.278Z,7.40
2019-02-26T16:17:22.470Z,12.23
2019-02-26T16:19:52.588Z,22.00
2019-02-26T16:22:22.502Z,26.23
2019-02-26T16:24:52.720Z,28.73
2019-02-26T16:27:22.932Z,38.77
2019-02-26T16:29:53.118Z,65.93
2019-02-26T16:32:23.169Z,74.07
2019-02-26T16:34:53.500Z,78.47
2019-02-26T16:37:24.058Z,62.30
2019-02-26T16:39:56.030Z,81.73
2019-02-26T16:42:25.983Z,70.90
2019-02-26T16:44:58.601Z,130.90
2019-02-26T16:47:28.018Z,42.20
2019-02-26T16:49:58.650Z,48.93
2019-02-26T16:52:30.348Z,39.73
2019-02-26T16:55:00.456Z,70.97
2019-02-26T16:57:30.390Z,58.20
2019-02-26T17:00:00.983Z,31.50
2019-02-26T17:02:31.159Z,51.30
2019-02-26T17:05:01.065Z,52.53
2019-02-26T17:07:32.230Z,50.50
2019-02-26T17:10:02.746Z,91.00
2019-02-26T17:12:33.035Z,76.73
2019-02-26T17:15:03.171Z,38.33
2019-02-26T17:17:34.398Z,47.47
2019-02-26T17:20:05.216Z,50.53
2019-02-26T17:22:35.212Z,58.63
2019-02-26T17:25:05.754Z,43.77
2019-02-26T17:27:36.532Z,30.00
2019-02-26T17:30:08.428Z,28.83
2019-02-26T17:32:38.966Z,45.27
2019-02-26T17:35:09.682Z,40.53
2019-02-26T17:37:41.697Z,67.53
2019-02-26T17:40:13.303Z,57.23
2019-02-26T17:42:43.311Z,68.57
2019-02-26T17:45:15.409Z,89.20
2019-02-26T17:47:45.681Z,93.50
2019-02-26T17:50:21.551Z,91.03
2019-02-26T17:52:51.551Z,75.23
2019-02-26T17:55:21.829Z,71.50
2019-02-26T17:57:52.006Z,75.93
2019-02-26T18:00:23.208Z,53.43
2019-02-26T18:02:53.345Z,77.67
2019-02-26T18:05:23.632Z,67.43
2019-02-26T18:07:53.793Z,67.57
2019-02-26T18:10:23.990Z,106.30
2019-02-26T18:12:54.143Z,93.73
2019-02-26T18:15:24.474Z,97.47
2019-02-26T18:17:54.647Z,74.70
2019-02-26T18:20:27.823Z,87.20
2019-02-26T18:22:59.959Z,104.60
2019-02-26T18:25:28.526Z,97.00
2019-02-26T18:27:58.716Z,97.50
2019-02-26T18:30:28.835Z,82.67
2019-02-26T18:32:59.347Z,50.23
2019-02-26T18:35:29.816Z,48.73
2019-02-26T18:37:59.990Z,45.83
2019-02-26T18:40:30.317Z,49.30
2019-02-26T18:43:00.501Z,40.83
2019-02-26T18:45:30.612Z,55.20
2019-02-26T18:48:00.660Z,42.33
2019-02-26T18:50:30.873Z,44.03
2019-02-26T18:53:01.079Z,51.93
2019-02-26T18:55:32.598Z,34.23
2019-02-26T18:58:02.730Z,38.67
2019-02-26T19:00:32.920Z,30.00
2019-02-26T19:03:03.116Z,30.47
2019-02-26T19:05:33.227Z,35.10
2019-02-26T19:08:05.507Z,28.17
2019-02-26T19:10:35.206Z,29.90
2019-02-26T19:13:05.582Z,49.80
2019-02-26T19:15:35.705Z,58.03
2019-02-26T19:18:05.813Z,54.10
2019-02-26T19:20:36.033Z,32.60
2019-02-26T19:23:06.352Z,43.37
2019-02-26T19:25:36.565Z,21.30
2019-02-26T19:28:06.775Z,20.50
2019-02-26T19:30:37.551Z,13.20
2019-02-26T19:33:07.886Z,10.47
2019-02-26T19:35:40.288Z,20.17
2019-02-26T19:38:10.655Z,12.10
2019-02-26T19:40:42.376Z,22.03
2019-02-26T19:43:12.389Z,30.53
2019-02-26T19:45:44.824Z,28.57
2019-02-26T19:48:14.478Z,19.77
2019-02-26T19:50:47.900Z,14.13
2019-02-26T19:53:16.109Z,17.50
2019-02-26T19:55:49.067Z,11.83
2019-02-26T19:58:18.540Z,29.07
2019-02-26T20:00:52.726Z,19.83
2019-02-26T20:03:20.577Z,12.70
2019-02-26T20:05:50.606Z,18.60
2019-02-26T20:08:20.616Z,18.33
2019-02-26T20:10:52.456Z,28.13
2019-02-26T20:13:22.754Z,21.57
2019-02-26T20:15:54.851Z,15.53
2019-02-26T20:18:26.132Z,22.80
2019-02-26T20:20:56.312Z,19.53
2019-02-26T20:23:26.555Z,14.17
2019-02-26T20:25:56.612Z,21.87
2019-02-26T20:28:26.566Z,25.23
2019-02-26T20:30:57.359Z,31.70
2019-02-26T20:33:27.567Z,26.20
2019-02-26T20:35:57.790Z,39.50
2019-02-26T20:38:32.082Z,29.20
2019-02-26T20:40:59.689Z,25.73
2019-02-26T20:43:29.874Z,74.40
2019-02-26T20:45:59.897Z,70.90
2019-02-26T20:48:30.022Z,73.73
2019-02-26T20:51:00.497Z,29.50
2019-02-26T20:53:30.668Z,16.10
2019-02-26T20:56:00.563Z,18.43
2019-02-26T20:58:30.566Z,8.73
2019-02-26T21:01:00.777Z,16.70
2019-02-26T21:03:31.020Z,11.87
2019-02-26T21:06:01.113Z,8.73
2019-02-26T21:08:31.588Z,32.33
2019-02-26T21:11:01.901Z,45.67
2019-02-26T21:13:34.684Z,49.00
2019-02-26T21:16:03.841Z,49.97
2019-02-26T21:18:33.759Z,53.23
2019-02-26T21:21:04.025Z,61.33
2019-02-26T21:23:33.935Z,44.70
2019-02-26T21:26:04.133Z,43.30
2019-02-26T21:28:34.418Z,32.30
2019-02-26T21:31:04.614Z,38.27
2019-02-26T21:33:34.732Z,34.63
2019-02-26T21:36:05.045Z,36.77
2019-02-26T21:38:38.602Z,27.20
2019-02-26T21:41:07.512Z,24.27
2019-02-26T21:43:37.765Z,28.63
2019-02-26T21:46:07.957Z,34.23
2019-02-26T21:48:38.137Z,47.23
2019-02-26T21:51:08.141Z,38.60
2019-02-26T21:53:39.857Z,57.07
2019-02-26T21:56:10.144Z,39.80
2019-02-26T21:58:40.342Z,48.23
2019-02-26T22:01:11.673Z,29.83
2019-02-26T22:03:42.625Z,28.80
2019-02-26T22:06:12.643Z,17.07
2019-02-26T22:08:42.549Z,10.73
2019-02-26T22:11:12.759Z,7.57
2019-02-26T22:13:42.949Z,12.53
2019-02-26T22:16:14.924Z,12.77
2019-02-26T22:18:44.688Z,22.67
2019-02-26T22:21:18.901Z,19.60
2019-02-26T22:23:46.823Z,29.07
2019-02-26T22:26:16.720Z,12.13
2019-02-26T22:28:46.603Z,7.07
2019-02-26T22:31:16.804Z,7.23
2019-02-26T22:33:47.074Z,10.83
2019-02-26T22:36:17.084Z,9.33
2019-02-26T22:38:49.106Z,23.20
2019-02-26T22:41:19.119Z,21.20
2019-02-26T22:43:49.124Z,12.27
2019-02-26T22:46:19.326Z,16.40
2019-02-26T22:48:49.579Z,11.10
2019-02-26T22:51:19.475Z,7.43
2019-02-26T22:53:49.461Z,9.90
2019-02-26T22:56:23.907Z,11.50
2019-02-26T22:58:51.557Z,9.80
2019-02-26T23:01:36.314Z,14.70
2019-02-26T23:04:03.689Z,6.40
2019-02-26T23:06:33.887Z,16.23
2019-02-26T23:09:04.742Z,11.60
2019-02-26T23:11:35.432Z,26.10
2019-02-26T23:14:05.913Z,15.13
2019-02-26T23:16:37.092Z,10.83
2019-02-26T23:19:07.983Z,14.63
2019-02-26T23:21:38.772Z,12.83
2019-02-26T23:24:09.172Z,10.03
2019-02-26T23:26:41.697Z,6.53
2019-02-26T23:29:11.475Z,10.37
2019-02-26T23:31:42.066Z,6.53
2019-02-26T23:34:12.249Z,9.33
2019-02-26T23:36:42.876Z,8.37
2019-02-26T23:39:15.933Z,7.33
2019-02-26T23:41:46.265Z,16.47
2019-02-26T23:44:18.077Z,9.70
2019-02-26T23:46:48.535Z,7.10
2019-02-26T23:49:18.530Z,9.07
2019-02-26T23:51:51.006Z,10.63
2019-02-26T23:54:21.036Z,11.97
2019-02-26T23:56:52.020Z,9.90
2019-02-26T23:59:22.612Z,8.37
